sensor_id;sensor_type;location;lat;lon;timestamp;pressure;altitude;pressure_sealevel;temperature;humidity
84169;BME280;74295;50.146;8.794;2023-12-28T00:02:17;100648.91;;;3.51;86.09
84169;BME280;74295;50.146;8.794;2023-12-28T00:12:19;100636.91;;;3.47;86.80
84169;BME280;74295;50.146;8.794;2023-12-28T00:22:25;100642.00;;;3.42;86.21
84169;BME280;74295;50.146;8.794;2023-12-28T00:32:27;100635.91;;;3.27;87.37
84169;BME280;74295;50.146;8.794;2023-12-28T00:42:31;100630.09;;;3.45;86.54
84169;BME280;74295;50.146;8.794;2023-12-28T00:52:34;100632.28;;;3.62;85.86
84169;BME280;74295;50.146;8.794;2023-12-28T01:02:38;100649.44;;;3.68;85.93
84169;BME280;74295;50.146;8.794;2023-12-28T01:12:41;100625.28;;;3.89;85.88
84169;BME280;74295;50.146;8.794;2023-12-28T01:22:45;100652.41;;;4.34;84.01
84169;BME280;74295;50.146;8.794;2023-12-28T01:32:47;100681.16;;;4.47;84.52
84169;BME280;74295;50.146;8.794;2023-12-28T01:42:51;100668.19;;;4.57;85.07
84169;BME280;74295;50.146;8.794;2023-12-28T01:52:55;100679.91;;;4.90;84.55
84169;BME280;74295;50.146;8.794;2023-12-28T02:03:00;100706.66;;;5.11;83.75
84169;BME280;74295;50.146;8.794;2023-12-28T02:13:03;100695.75;;;5.32;83.27
84169;BME280;74295;50.146;8.794;2023-12-28T02:23:07;100705.16;;;5.88;80.29
84169;BME280;74295;50.146;8.794;2023-12-28T02:33:19;100706.31;;;6.64;74.17
84169;BME280;74295;50.146;8.794;2023-12-28T02:43:27;100699.34;;;7.38;70.53
84169;BME280;74295;50.146;8.794;2023-12-28T02:53:31;100705.34;;;7.96;67.98
84169;BME280;74295;50.146;8.794;2023-12-28T03:03:34;100705.41;;;8.14;66.78
84169;BME280;74295;50.146;8.794;2023-12-28T03:13:38;100706.00;;;8.16;67.87
84169;BME280;74295;50.146;8.794;2023-12-28T03:23:40;100697.22;;;8.27;67.96
84169;BME280;74295;50.146;8.794;2023-12-28T03:33:44;100713.06;;;8.17;69.94
84169;BME280;74295;50.146;8.794;2023-12-28T03:43:47;100701.59;;;8.21;69.54
84169;BME280;74295;50.146;8.794;2023-12-28T03:53:51;100729.41;;;8.28;69.96
84169;BME280;74295;50.146;8.794;2023-12-28T04:03:54;100732.94;;;8.29;70.23
84169;BME280;74295;50.146;8.794;2023-12-28T04:13:58;100731.66;;;8.31;70.61
84169;BME280;74295;50.146;8.794;2023-12-28T04:24:01;100711.31;;;8.29;72.46
84169;BME280;74295;50.146;8.794;2023-12-28T04:34:05;100707.41;;;8.25;74.32
84169;BME280;74295;50.146;8.794;2023-12-28T04:44:07;100697.38;;;8.32;74.58
84169;BME280;74295;50.146;8.794;2023-12-28T04:54:11;100742.25;;;8.33;75.63
84169;BME280;74295;50.146;8.794;2023-12-28T05:04:14;100767.00;;;8.30;77.11
84169;BME280;74295;50.146;8.794;2023-12-28T05:14:19;100785.88;;;8.30;77.03
84169;BME280;74295;50.146;8.794;2023-12-28T05:24:22;100787.94;;;8.34;77.91
84169;BME280;74295;50.146;8.794;2023-12-28T05:34:26;100796.59;;;8.43;78.11
84169;BME280;74295;50.146;8.794;2023-12-28T05:44:29;100788.38;;;8.56;79.00
84169;BME280;74295;50.146;8.794;2023-12-28T05:54:36;100783.81;;;8.56;80.15
84169;BME280;74295;50.146;8.794;2023-12-28T06:04:39;100760.84;;;8.65;80.97
84169;BME280;74295;50.146;8.794;2023-12-28T06:14:44;100763.63;;;8.59;81.69
84169;BME280;74295;50.146;8.794;2023-12-28T06:24:47;100764.28;;;8.72;81.61
84169;BME280;74295;50.146;8.794;2023-12-28T06:34:51;100746.50;;;8.65;82.45
84169;BME280;74295;50.146;8.794;2023-12-28T06:44:54;100759.84;;;8.60;82.44
84169;BME280;74295;50.146;8.794;2023-12-28T06:54:58;100763.66;;;8.52;82.88
84169;BME280;74295;50.146;8.794;2023-12-28T07:05:04;100760.38;;;8.50;83.31
84169;BME280;74295;50.146;8.794;2023-12-28T07:15:09;100782.56;;;8.52;84.02
84169;BME280;74295;50.146;8.794;2023-12-28T07:25:15;100780.69;;;8.77;82.94
84169;BME280;74295;50.146;8.794;2023-12-28T07:35:19;100797.88;;;8.83;82.92
84169;BME280;74295;50.146;8.794;2023-12-28T07:45:22;100819.19;;;8.91;83.16
84169;BME280;74295;50.146;8.794;2023-12-28T07:55:27;100821.19;;;9.02;82.87
84169;BME280;74295;50.146;8.794;2023-12-28T08:05:30;100818.72;;;9.00;82.65
84169;BME280;74295;50.146;8.794;2023-12-28T08:15:34;100794.44;;;8.94;82.92
84169;BME280;74295;50.146;8.794;2023-12-28T08:25:36;100798.41;;;9.09;82.12
84169;BME280;74295;50.146;8.794;2023-12-28T08:35:40;100790.69;;;9.13;82.39
84169;BME280;74295;50.146;8.794;2023-12-28T08:45:43;100817.97;;;9.11;83.07
84169;BME280;74295;50.146;8.794;2023-12-28T08:55:47;100798.34;;;9.16;83.02
84169;BME280;74295;50.146;8.794;2023-12-28T09:05:49;100805.47;;;9.28;82.84
84169;BME280;74295;50.146;8.794;2023-12-28T09:15:53;100802.00;;;9.39;82.60
84169;BME280;74295;50.146;8.794;2023-12-28T09:25:56;100809.75;;;9.54;82.01
84169;BME280;74295;50.146;8.794;2023-12-28T09:36:03;100818.47;;;9.56;81.31
84169;BME280;74295;50.146;8.794;2023-12-28T09:46:06;100826.94;;;9.77;80.54
84169;BME280;74295;50.146;8.794;2023-12-28T09:56:13;100841.94;;;9.91;80.06
84169;BME280;74295;50.146;8.794;2023-12-28T10:06:16;100844.69;;;10.03;78.85
84169;BME280;74295;50.146;8.794;2023-12-28T10:16:20;100861.38;;;10.18;78.33
84169;BME280;74295;50.146;8.794;2023-12-28T10:26:24;100844.03;;;10.49;75.55
84169;BME280;74295;50.146;8.794;2023-12-28T10:36:28;100848.53;;;10.78;74.84
84169;BME280;74295;50.146;8.794;2023-12-28T10:46:39;100837.22;;;10.92;73.57
84169;BME280;74295;50.146;8.794;2023-12-28T10:56:46;100832.63;;;11.04;72.74
84169;BME280;74295;50.146;8.794;2023-12-28T11:06:52;100826.13;;;10.94;72.79
84169;BME280;74295;50.146;8.794;2023-12-28T11:16:58;100827.91;;;10.88;72.52
84169;BME280;74295;50.146;8.794;2023-12-28T11:27:01;100836.84;;;11.23;71.38
84169;BME280;74295;50.146;8.794;2023-12-28T11:37:13;100824.94;;;11.13;70.97
84169;BME280;74295;50.146;8.794;2023-12-28T11:47:21;100810.75;;;11.22;70.95
84169;BME280;74295;50.146;8.794;2023-12-28T11:57:26;100799.66;;;11.35;70.44
84169;BME280;74295;50.146;8.794;2023-12-28T12:07:29;100779.38;;;11.66;69.99
84169;BME280;74295;50.146;8.794;2023-12-28T12:17:34;100756.50;;;11.50;68.43
84169;BME280;74295;50.146;8.794;2023-12-28T12:27:36;100754.94;;;11.26;68.84
84169;BME280;74295;50.146;8.794;2023-12-28T12:37:42;100747.88;;;11.25;68.43
84169;BME280;74295;50.146;8.794;2023-12-28T12:47:46;100737.91;;;11.42;68.46
84169;BME280;74295;50.146;8.794;2023-12-28T12:57:50;100720.25;;;11.56;67.61
84169;BME280;74295;50.146;8.794;2023-12-28T13:07:52;100697.03;;;11.49;68.72
84169;BME280;74295;50.146;8.794;2023-12-28T13:17:57;100693.34;;;11.27;70.26
84169;BME280;74295;50.146;8.794;2023-12-28T13:27:59;100696.16;;;11.32;70.71
84169;BME280;74295;50.146;8.794;2023-12-28T13:38:04;100710.00;;;11.19;71.83
84169;BME280;74295;50.146;8.794;2023-12-28T13:48:07;100696.69;;;11.45;71.73
84169;BME280;74295;50.146;8.794;2023-12-28T13:58:12;100707.78;;;11.16;73.58
84169;BME280;74295;50.146;8.794;2023-12-28T14:08:16;100705.63;;;10.90;75.73
84169;BME280;74295;50.146;8.794;2023-12-28T14:18:20;100691.94;;;10.73;77.38
84169;BME280;74295;50.146;8.794;2023-12-28T14:28:23;100691.84;;;10.68;78.09
84169;BME280;74295;50.146;8.794;2023-12-28T14:38:29;100689.41;;;10.55;79.38
84169;BME280;74295;50.146;8.794;2023-12-28T14:48:31;100688.22;;;10.40;81.22
84169;BME280;74295;50.146;8.794;2023-12-28T14:58:36;100702.25;;;10.25;82.16
84169;BME280;74295;50.146;8.794;2023-12-28T15:08:38;100693.19;;;10.19;82.81
84169;BME280;74295;50.146;8.794;2023-12-28T15:18:43;100692.47;;;10.12;83.12
84169;BME280;74295;50.146;8.794;2023-12-28T15:28:46;100701.28;;;10.08;83.35
84169;BME280;74295;50.146;8.794;2023-12-28T15:38:50;100705.63;;;10.09;83.51
84169;BME280;74295;50.146;8.794;2023-12-28T15:48:52;100711.03;;;9.97;83.71
84169;BME280;74295;50.146;8.794;2023-12-28T15:58:56;100693.81;;;9.92;83.98
84169;BME280;74295;50.146;8.794;2023-12-28T16:09:01;100691.00;;;9.87;83.48
84169;BME280;74295;50.146;8.794;2023-12-28T16:19:19;100700.00;;;9.69;83.50
84169;BME280;74295;50.146;8.794;2023-12-28T16:29:24;100685.47;;;9.52;83.24
84169;BME280;74295;50.146;8.794;2023-12-28T16:39:28;100682.69;;;9.29;83.36
84169;BME280;74295;50.146;8.794;2023-12-28T16:49:31;100681.78;;;9.35;83.33
84169;BME280;74295;50.146;8.794;2023-12-28T16:59:35;100675.69;;;9.40;83.33
84169;BME280;74295;50.146;8.794;2023-12-28T17:09:38;100674.34;;;9.31;83.77
84169;BME280;74295;50.146;8.794;2023-12-28T17:19:42;100678.78;;;9.25;83.96
84169;BME280;74295;50.146;8.794;2023-12-28T17:29:45;100658.50;;;9.05;84.68
84169;BME280;74295;50.146;8.794;2023-12-28T17:39:51;100671.72;;;8.95;85.09
84169;BME280;74295;50.146;8.794;2023-12-28T17:49:56;100667.69;;;8.86;85.59
84169;BME280;74295;50.146;8.794;2023-12-28T18:00:02;100667.50;;;8.81;85.29
84169;BME280;74295;50.146;8.794;2023-12-28T18:10:06;100677.34;;;8.75;84.96
84169;BME280;74295;50.146;8.794;2023-12-28T18:20:11;100667.84;;;8.73;85.29
84169;BME280;74295;50.146;8.794;2023-12-28T18:30:16;100652.69;;;8.72;85.10
84169;BME280;74295;50.146;8.794;2023-12-28T18:40:20;100669.03;;;8.59;85.69
84169;BME280;74295;50.146;8.794;2023-12-28T18:50:22;100671.44;;;8.49;86.15
84169;BME280;74295;50.146;8.794;2023-12-28T19:00:27;100675.94;;;8.55;86.05
84169;BME280;74295;50.146;8.794;2023-12-28T19:10:30;100684.19;;;8.60;86.00
84169;BME280;74295;50.146;8.794;2023-12-28T19:20:34;100667.38;;;8.76;85.16
84169;BME280;74295;50.146;8.794;2023-12-28T19:30:36;100673.97;;;8.80;85.09
84169;BME280;74295;50.146;8.794;2023-12-28T19:40:40;100670.19;;;8.69;85.26
84169;BME280;74295;50.146;8.794;2023-12-28T19:50:43;100673.59;;;8.58;86.06
84169;BME280;74295;50.146;8.794;2023-12-28T20:00:47;100688.72;;;8.48;86.67
84169;BME280;74295;50.146;8.794;2023-12-28T20:10:51;100688.94;;;8.64;85.52
84169;BME280;74295;50.146;8.794;2023-12-28T20:20:55;100678.03;;;8.89;85.05
84169;BME280;74295;50.146;8.794;2023-12-28T20:30:58;100666.69;;;8.98;85.00
84169;BME280;74295;50.146;8.794;2023-12-28T20:41:02;100656.03;;;9.03;84.95
84169;BME280;74295;50.146;8.794;2023-12-28T20:51:08;100663.13;;;9.16;84.55
84169;BME280;74295;50.146;8.794;2023-12-28T21:01:12;100666.41;;;9.18;84.79
84169;BME280;74295;50.146;8.794;2023-12-28T21:11:15;100649.16;;;9.19;85.09
84169;BME280;74295;50.146;8.794;2023-12-28T21:21:19;100651.19;;;9.35;85.32
84169;BME280;74295;50.146;8.794;2023-12-28T21:31:22;100645.03;;;9.28;86.14
84169;BME280;74295;50.146;8.794;2023-12-28T21:41:27;100662.94;;;9.29;86.45
84169;BME280;74295;50.146;8.794;2023-12-28T21:51:29;100634.59;;;9.31;86.56
84169;BME280;74295;50.146;8.794;2023-12-28T22:01:33;100633.94;;;9.47;86.14
84169;BME280;74295;50.146;8.794;2023-12-28T22:11:37;100654.16;;;9.45;86.51
84169;BME280;74295;50.146;8.794;2023-12-28T22:21:41;100654.53;;;9.48;86.19
84169;BME280;74295;50.146;8.794;2023-12-28T22:31:44;100642.09;;;9.59;85.57
84169;BME280;74295;50.146;8.794;2023-12-28T22:41:50;100642.91;;;9.59;85.28
84169;BME280;74295;50.146;8.794;2023-12-28T22:51:54;100640.81;;;9.61;84.87
84169;BME280;74295;50.146;8.794;2023-12-28T23:01:59;100623.72;;;9.61;84.37
84169;BME280;74295;50.146;8.794;2023-12-28T23:12:02;100635.38;;;9.61;84.07
84169;BME280;74295;50.146;8.794;2023-12-28T23:22:06;100634.09;;;9.64;83.78
84169;BME280;74295;50.146;8.794;2023-12-28T23:32:08;100612.22;;;9.65;83.34
84169;BME280;74295;50.146;8.794;2023-12-28T23:42:12;100603.97;;;9.60;82.95
84169;BME280;74295;50.146;8.794;2023-12-28T23:52:15;100593.81;;;9.44;83.80
